Time;durP1;ratioP1;P1;durP2;ratioP2;P2;SDS_P1;SDS_P2;PMS_P1;PMS_P2;Temp;Humidity;BMP_temperature;BMP_pressure;BME280_temperature;BME280_humidity;BME280_pressure;Samples;Min_cycle;Max_cycle;Signal;HPM_P1;HPM_P2
2022/08/18 00:00:12;;;;;;;13.35;10.75;;;23.50;99.90;;;;;;4994510;28;20219;-73
2022/08/18 00:02:39;;;;;;;15.88;12.38;;;23.40;99.90;;;;;;5000006;28;20210;-72
2022/08/18 00:05:06;;;;;;;13.70;10.50;;;23.30;99.90;;;;;;4993099;28;20212;-72
2022/08/18 00:07:33;;;;;;;11.60;10.20;;;23.30;99.90;;;;;;5009784;28;20591;-72
2022/08/18 00:10:01;;;;;;;14.15;10.63;;;23.30;99.90;;;;;;4997639;28;20231;-73
2022/08/18 00:12:31;;;;;;;13.63;10.32;;;23.30;99.90;;;;;;4991632;28;20216;-72
2022/08/18 00:15:02;;;;;;;13.45;10.98;;;23.30;99.90;;;;;;4991152;28;20215;-73
2022/08/18 00:17:29;;;;;;;12.93;10.63;;;23.30;99.90;;;;;;5006708;28;20204;-72
2022/08/18 00:19:56;;;;;;;18.33;12.75;;;23.30;99.90;;;;;;4991801;28;20212;-73
2022/08/18 00:22:23;;;;;;;18.92;13.10;;;23.30;99.90;;;;;;5005472;28;20222;-74
2022/08/18 00:24:52;;;;;;;15.60;11.45;;;23.30;99.90;;;;;;4991213;28;20457;-73
2022/08/18 00:27:21;;;;;;;13.68;11.48;;;23.30;99.90;;;;;;5004340;28;20211;-73
2022/08/18 00:29:49;;;;;;;14.32;11.27;;;23.30;99.90;;;;;;4991417;28;20319;-73
2022/08/18 00:32:20;;;;;;;16.58;11.02;;;23.30;99.90;;;;;;4990715;28;20214;-73
2022/08/18 00:34:47;;;;;;;14.95;10.50;;;23.30;99.90;;;;;;5009113;28;20202;-73
2022/08/18 00:37:13;;;;;;;18.08;12.73;;;23.30;99.90;;;;;;5007243;28;20572;-74
2022/08/18 00:39:40;;;;;;;12.73;11.38;;;23.30;99.90;;;;;;4992943;28;20204;-72
2022/08/18 00:42:16;;;;;;;14.73;10.65;;;23.30;99.90;;;;;;4991426;28;20219;-72
2022/08/18 00:44:43;;;;;;;13.05;11.65;;;23.30;99.90;;;;;;5011040;28;20203;-73
2022/08/18 00:47:10;;;;;;;12.98;11.23;;;23.30;99.90;;;;;;4992324;28;20203;-72
2022/08/18 00:49:41;;;;;;;12.85;11.55;;;23.30;99.90;;;;;;4998560;28;20231;-72
2022/08/18 00:52:11;;;;;;;14.18;11.60;;;23.30;99.90;;;;;;4990986;28;20676;-73
2022/08/18 00:54:40;;;;;;;14.05;10.80;;;23.10;99.90;;;;;;5007049;28;20219;-73
2022/08/18 00:57:08;;;;;;;13.02;11.23;;;23.20;99.90;;;;;;5003493;28;20255;-73
2022/08/18 00:59:41;;;;;;;11.27;10.18;;;23.20;99.90;;;;;;5002359;28;20236;-74
2022/08/18 01:02:12;;;;;;;14.50;12.25;;;23.20;99.90;;;;;;5006642;28;20215;-72
2022/08/18 01:04:47;;;;;;;14.48;11.85;;;23.20;99.90;;;;;;5006780;28;20222;-72
2022/08/18 01:07:20;;;;;;;12.00;10.70;;;23.20;99.90;;;;;;5011438;28;20489;-72
2022/08/18 01:09:47;;;;;;;12.52;11.20;;;23.20;99.90;;;;;;4994562;28;20270;-72
2022/08/18 01:12:14;;;;;;;12.93;11.35;;;23.20;99.90;;;;;;4994113;28;20227;-73
2022/08/18 01:14:41;;;;;;;15.23;11.15;;;23.20;99.90;;;;;;5010413;28;20222;-73
2022/08/18 01:22:49;;;;;;;12.45;11.23;;;23.20;99.90;;;;;;5008915;28;20289;-73
2022/08/18 01:28:04;;;;;;;12.50;11.25;;;23.10;99.90;;;;;;4998914;28;20447;-73
2022/08/18 01:30:33;;;;;;;12.50;11.27;;;23.10;99.90;;;;;;4998122;28;20680;-73
2022/08/18 01:33:00;;;;;;;14.02;10.80;;;23.10;99.90;;;;;;4998028;28;20569;-74
2022/08/18 01:35:27;;;;;;;13.93;12.25;;;23.10;99.90;;;;;;5013857;28;20210;-73
2022/08/18 01:37:56;;;;;;;16.33;12.27;;;23.10;99.90;;;;;;4998786;28;20688;-74
2022/08/18 01:40:24;;;;;;;13.07;11.77;;;23.00;99.90;;;;;;4994554;28;20204;-73
2022/08/18 01:42:51;;;;;;;15.85;11.38;;;23.10;99.90;;;;;;5007179;28;20214;-74
2022/08/18 01:45:19;;;;;;;15.07;11.80;;;23.00;99.90;;;;;;4999080;28;20214;-73
2022/08/18 01:47:46;;;;;;;15.38;12.13;;;23.00;99.90;;;;;;5010740;28;20261;-73
2022/08/18 01:50:13;;;;;;;15.73;11.63;;;23.00;99.90;;;;;;5008769;28;20223;-74
2022/08/18 01:52:40;;;;;;;13.43;12.02;;;22.90;99.90;;;;;;4994350;28;20298;-72
2022/08/18 01:55:10;;;;;;;13.18;11.75;;;22.90;99.90;;;;;;4994328;28;20217;-73
2022/08/18 01:57:41;;;;;;;14.52;11.18;;;22.90;99.90;;;;;;5000293;28;20250;-73
2022/08/18 02:00:09;;;;;;;14.93;11.50;;;22.90;99.90;;;;;;5001040;28;20204;-73
2022/08/18 02:02:36;;;;;;;15.60;11.70;;;22.90;99.90;;;;;;4992090;28;20208;-73
2022/08/18 02:05:10;;;;;;;12.30;11.02;;;22.90;99.90;;;;;;4995296;28;20212;-73
2022/08/18 02:07:38;;;;;;;13.30;11.93;;;22.90;99.90;;;;;;5005220;28;20204;-73
2022/08/18 02:10:06;;;;;;;21.15;12.45;;;22.80;99.90;;;;;;4993478;28;20259;-73
2022/08/18 02:12:34;;;;;;;15.35;12.40;;;22.80;99.90;;;;;;4993099;28;20216;-75
2022/08/18 02:15:01;;;;;;;13.10;11.85;;;22.80;99.90;;;;;;4993981;28;20215;-73
2022/08/18 02:17:28;;;;;;;15.40;11.93;;;22.80;99.90;;;;;;5005750;28;20215;-73
2022/08/18 02:19:55;;;;;;;14.35;12.25;;;22.80;99.90;;;;;;5003391;28;20211;-75
2022/08/18 02:22:22;;;;;;;12.77;11.48;;;22.80;99.90;;;;;;4995083;28;20226;-74
2022/08/18 02:24:49;;;;;;;13.95;11.75;;;22.80;99.90;;;;;;4994118;28;20212;-72
2022/08/18 02:27:16;;;;;;;14.15;11.63;;;22.80;99.90;;;;;;4997399;28;20234;-73
2022/08/18 02:29:44;;;;;;;13.48;12.07;;;22.80;99.90;;;;;;4997925;28;20246;-73
2022/08/18 02:32:11;;;;;;;13.80;11.40;;;22.80;99.90;;;;;;4993821;28;20219;-73
2022/08/18 02:34:38;;;;;;;13.93;12.40;;;22.80;99.90;;;;;;5005720;28;20211;-73
2022/08/18 02:37:05;;;;;;;17.20;12.88;;;22.80;99.90;;;;;;4993165;28;20212;-73
2022/08/18 02:39:33;;;;;;;15.93;13.23;;;22.80;99.90;;;;;;4994177;28;20211;-74
2022/08/18 02:42:00;;;;;;;13.63;12.30;;;22.80;99.90;;;;;;5005620;28;20243;-73
2022/08/18 02:44:27;;;;;;;16.95;12.68;;;22.70;99.90;;;;;;4999551;28;20552;-73
2022/08/18 02:46:55;;;;;;;14.93;12.70;;;22.70;99.90;;;;;;4997958;28;20211;-73
2022/08/18 02:49:22;;;;;;;13.43;12.02;;;22.70;99.90;;;;;;5012786;28;20714;-74
2022/08/18 02:51:49;;;;;;;13.65;12.25;;;22.70;99.90;;;;;;5004185;28;20573;-74
2022/08/18 02:54:17;;;;;;;14.38;12.88;;;22.70;99.90;;;;;;4994197;28;20204;-73
2022/08/18 02:56:44;;;;;;;16.75;12.07;;;22.60;99.90;;;;;;4992569;28;20263;-74
2022/08/18 02:59:13;;;;;;;13.55;12.15;;;22.70;99.90;;;;;;4999125;28;20223;-74
2022/08/18 03:01:43;;;;;;;14.38;12.80;;;22.60;99.90;;;;;;5009412;28;20211;-73
2022/08/18 03:04:14;;;;;;;14.80;13.38;;;22.60;99.90;;;;;;4992900;28;20203;-74
2022/08/18 03:06:42;;;;;;;19.02;13.32;;;22.50;99.90;;;;;;5004028;28;20227;-74
2022/08/18 03:09:10;;;;;;;17.45;14.48;;;22.60;99.90;;;;;;4992644;28;20215;-74
2022/08/18 03:11:38;;;;;;;15.25;13.75;;;22.60;99.90;;;;;;4992265;28;20215;-72
2022/08/18 03:14:05;;;;;;;17.63;14.50;;;22.60;99.90;;;;;;4995004;28;20208;-74
2022/08/18 03:16:33;;;;;;;16.23;14.55;;;22.50;99.90;;;;;;4998636;28;20655;-73
2022/08/18 03:19:00;;;;;;;16.80;15.02;;;22.50;99.90;;;;;;4996318;28;20212;-73
2022/08/18 03:21:31;;;;;;;18.88;16.75;;;22.50;99.90;;;;;;4999654;28;20210;-73
2022/08/18 03:23:58;;;;;;;21.90;16.80;;;22.50;99.90;;;;;;5002454;28;20675;-74
2022/08/18 03:26:26;;;;;;;17.23;15.40;;;22.50;99.90;;;;;;4997242;28;20203;-74
2022/08/18 03:28:54;;;;;;;17.10;15.32;;;22.50;99.90;;;;;;4993766;28;20212;-73
2022/08/18 03:31:23;;;;;;;16.67;14.85;;;22.50;99.90;;;;;;4999279;28;20235;-74
2022/08/18 03:33:51;;;;;;;17.38;15.43;;;22.50;99.90;;;;;;5001462;28;20208;-73
2022/08/18 03:36:21;;;;;;;18.15;15.55;;;22.50;99.90;;;;;;5000082;28;20239;-73
2022/08/18 03:38:51;;;;;;;17.10;15.38;;;22.50;99.90;;;;;;5003064;28;20239;-73
2022/08/18 03:41:21;;;;;;;17.92;15.07;;;22.50;99.90;;;;;;4991818;28;20232;-73
2022/08/18 03:43:48;;;;;;;20.33;15.10;;;22.50;99.90;;;;;;5002364;28;20301;-73
2022/08/18 03:46:16;;;;;;;21.60;16.20;;;22.40;99.90;;;;;;4998592;28;20222;-73
2022/08/18 03:48:45;;;;;;;15.52;14.02;;;22.50;99.90;;;;;;4992628;28;20216;-73
2022/08/18 03:51:16;;;;;;;18.20;15.95;;;22.50;99.90;;;;;;4996307;28;20227;-73
2022/08/18 03:53:45;;;;;;;20.88;15.52;;;22.50;99.90;;;;;;4992764;28;20283;-73
2022/08/18 03:56:15;;;;;;;17.55;14.90;;;22.60;99.90;;;;;;4990922;28;20223;-73
2022/08/18 03:58:44;;;;;;;17.13;15.32;;;22.60;99.90;;;;;;5000179;28;20206;-73
2022/08/18 04:01:11;;;;;;;18.25;15.10;;;22.60;99.90;;;;;;5011279;28;20207;-74
2022/08/18 04:03:38;;;;;;;16.90;15.13;;;22.60;99.90;;;;;;4996706;28;20212;-74
2022/08/18 04:06:05;;;;;;;16.92;15.20;;;22.70;99.90;;;;;;4997858;28;20220;-74
2022/08/18 04:08:32;;;;;;;17.27;15.57;;;22.70;99.90;;;;;;4993313;28;20239;-74
2022/08/18 04:10:59;;;;;;;16.70;14.88;;;22.80;99.90;;;;;;4993279;28;20231;-74
2022/08/18 04:13:27;;;;;;;16.40;14.73;;;22.70;99.90;;;;;;4991534;28;20220;-73
2022/08/18 04:15:54;;;;;;;17.95;15.43;;;22.80;99.90;;;;;;4998836;28;20203;-74
2022/08/18 04:18:21;;;;;;;16.52;14.82;;;22.80;99.90;;;;;;5004416;28;20223;-74
2022/08/18 04:20:47;;;;;;;17.45;15.38;;;22.90;99.90;;;;;;4995384;28;20208;-73
2022/08/18 04:23:15;;;;;;;17.38;13.95;;;22.90;99.90;;;;;;4992217;28;20243;-73
2022/08/18 04:25:41;;;;;;;18.75;16.27;;;23.00;99.90;;;;;;4992993;28;20208;-73
2022/08/18 04:28:08;;;;;;;17.25;15.55;;;23.00;99.90;;;;;;4993683;28;20243;-74
2022/08/18 04:30:37;;;;;;;18.95;15.40;;;23.00;99.90;;;;;;5007969;28;20688;-74
2022/08/18 04:33:05;;;;;;;15.35;13.80;;;23.00;99.90;;;;;;5007729;28;20204;-74
2022/08/18 04:35:32;;;;;;;19.65;14.52;;;23.10;99.90;;;;;;4995369;28;20298;-75
2022/08/18 04:37:59;;;;;;;15.85;14.30;;;23.10;99.90;;;;;;5012491;28;20217;-74
2022/08/18 04:40:26;;;;;;;17.02;14.80;;;23.10;99.90;;;;;;5004584;28;20216;-73
2022/08/18 04:42:53;;;;;;;17.15;14.88;;;23.10;99.90;;;;;;5013507;28;20210;-74
2022/08/18 04:45:20;;;;;;;16.67;15.02;;;23.10;99.90;;;;;;5012295;28;20207;-73
2022/08/18 04:47:48;;;;;;;17.25;15.15;;;23.10;99.90;;;;;;5006623;28;20204;-71
2022/08/18 04:50:15;;;;;;;16.70;15.00;;;23.10;99.90;;;;;;5003778;28;20223;-74
2022/08/18 04:55:29;;;;;;;17.08;15.27;;;23.20;99.90;;;;;;4995661;28;20207;-74
2022/08/18 04:57:56;;;;;;;17.10;14.88;;;23.20;99.90;;;;;;5006856;28;20240;-73
2022/08/18 05:00:23;;;;;;;24.35;15.88;;;23.30;99.90;;;;;;5003360;28;20630;-74
2022/08/18 05:02:53;;;;;;;20.92;15.98;;;23.40;99.90;;;;;;5018610;28;20210;-73
2022/08/18 05:05:20;;;;;;;20.13;15.80;;;23.30;99.90;;;;;;5017755;28;20209;-73
2022/08/18 05:07:47;;;;;;;17.85;15.02;;;23.40;99.90;;;;;;5009055;28;20218;-73
2022/08/18 05:10:16;;;;;;;17.63;15.43;;;23.50;99.90;;;;;;5003699;28;20237;-73
2022/08/18 05:12:43;;;;;;;16.02;14.32;;;23.60;99.90;;;;;;5007412;28;20213;-72
2022/08/18 05:15:10;;;;;;;17.83;15.68;;;23.60;99.90;;;;;;5008297;28;20203;-72
2022/08/18 05:17:38;;;;;;;18.50;15.15;;;23.60;99.90;;;;;;5009481;28;20233;-71
2022/08/18 05:20:08;;;;;;;22.52;15.38;;;23.70;99.90;;;;;;5004571;28;20255;-71
2022/08/18 05:22:39;;;;;;;17.75;15.80;;;23.80;99.90;;;;;;5011260;28;20231;-71
2022/08/18 05:25:07;;;;;;;18.23;15.40;;;23.80;99.90;;;;;;4998644;28;20618;-73
2022/08/18 05:27:36;;;;;;;18.83;15.55;;;23.80;99.90;;;;;;4999163;28;20238;-73
2022/08/18 05:30:04;;;;;;;18.95;16.20;;;23.80;99.90;;;;;;4999521;28;20261;-75
2022/08/18 05:32:33;;;;;;;17.15;15.25;;;23.80;99.90;;;;;;5003673;28;20605;-74
2022/08/18 05:35:04;;;;;;;15.82;14.10;;;23.90;99.90;;;;;;5014336;28;20215;-74
2022/08/18 05:37:43;;;;;;;16.83;14.65;;;24.00;99.90;;;;;;4998876;28;20227;-73
2022/08/18 05:40:10;;;;;;;18.67;15.50;;;24.00;99.90;;;;;;5004331;28;20996;-73
2022/08/18 05:42:39;;;;;;;16.95;15.15;;;24.00;99.90;;;;;;5006584;28;20670;-74
2022/08/18 05:45:11;;;;;;;16.55;14.73;;;24.10;99.90;;;;;;5013521;28;20207;-73
2022/08/18 05:47:38;;;;;;;17.10;15.30;;;24.10;99.90;;;;;;4996668;28;20200;-73
2022/08/18 05:50:09;;;;;;;16.15;13.95;;;24.20;99.90;;;;;;4998741;28;20237;-73
2022/08/18 05:52:42;;;;;;;18.25;14.82;;;24.30;99.90;;;;;;5003801;28;20262;-74
2022/08/18 05:58:04;;;;;;;21.25;15.32;;;24.30;99.90;;;;;;4994908;28;20246;-73
2022/08/18 06:00:32;;;;;;;22.95;14.02;;;24.40;99.90;;;;;;5001999;28;20637;-74
2022/08/18 06:03:03;;;;;;;17.08;15.00;;;24.40;99.90;;;;;;5002665;28;20299;-73
2022/08/18 06:05:33;;;;;;;16.27;14.30;;;24.50;99.90;;;;;;4998835;28;20215;-73
2022/08/18 06:08:07;;;;;;;18.00;14.82;;;24.50;99.90;;;;;;5003320;28;20215;-73
2022/08/18 06:10:35;;;;;;;20.42;14.15;;;24.60;99.90;;;;;;5013373;28;20310;-75
2022/08/18 06:13:03;;;;;;;19.42;15.25;;;24.60;99.90;;;;;;5007101;28;20558;-73
2022/08/18 06:15:42;;;;;;;17.23;14.15;;;24.70;99.90;;;;;;5002977;28;20633;-74
2022/08/18 06:18:32;;;;;;;16.98;14.38;;;24.70;99.90;;;;;;5010951;28;20199;-74
2022/08/18 06:21:22;;;;;;;18.67;13.77;;;24.80;99.90;;;;;;5006462;28;20242;-73
2022/08/18 06:23:57;;;;;;;17.52;13.57;;;24.90;99.90;;;;;;5010264;28;20223;-72
2022/08/18 06:26:38;;;;;;;15.55;13.30;;;25.00;99.90;;;;;;5013036;28;20203;-74
2022/08/18 06:29:21;;;;;;;13.68;11.73;;;25.10;99.90;;;;;;5005369;28;20204;-75
2022/08/18 06:32:00;;;;;;;14.98;12.32;;;25.30;99.90;;;;;;5010266;28;20297;-74
2022/08/18 06:34:39;;;;;;;16.08;11.85;;;25.40;99.90;;;;;;5016140;28;20956;-73
2022/08/18 06:37:12;;;;;;;17.88;12.25;;;25.50;99.90;;;;;;5010475;28;20249;-72
2022/08/18 06:39:46;;;;;;;18.35;11.80;;;25.60;99.90;;;;;;5009070;28;20208;-74
2022/08/18 06:42:15;;;;;;;14.88;11.90;;;25.60;99.90;;;;;;5007911;28;20298;-74
2022/08/18 06:44:47;;;;;;;15.07;11.75;;;25.70;99.90;;;;;;5014833;28;20585;-69
2022/08/18 06:47:32;;;;;;;14.88;10.90;;;25.80;99.90;;;;;;5005580;28;20562;-67
2022/08/18 06:50:05;;;;;;;11.93;9.52;;;25.90;99.90;;;;;;5003843;28;20257;-71
2022/08/18 06:52:34;;;;;;;14.05;11.52;;;25.90;99.90;;;;;;4999399;28;20210;-67
2022/08/18 06:55:07;;;;;;;11.82;10.68;;;25.90;99.90;;;;;;5005949;28;20314;-69
2022/08/18 06:57:36;;;;;;;12.38;10.30;;;25.90;99.90;;;;;;4997214;28;20757;-71
2022/08/18 07:00:10;;;;;;;13.55;10.90;;;25.90;99.90;;;;;;5011959;28;20235;-68
2022/08/18 07:02:48;;;;;;;11.98;10.57;;;25.90;99.90;;;;;;5007777;28;20207;-72
2022/08/18 07:05:19;;;;;;;13.15;10.20;;;26.00;99.90;;;;;;5013268;28;20214;-66
2022/08/18 07:08:01;;;;;;;14.85;9.90;;;26.10;99.90;;;;;;5011464;28;20208;-65
2022/08/18 07:10:32;;;;;;;11.07;9.65;;;26.10;99.90;;;;;;5011506;28;20469;-67
2022/08/18 07:13:16;;;;;;;12.13;9.23;;;26.10;99.90;;;;;;5006631;28;20290;-68
2022/08/18 07:15:44;;;;;;;10.65;8.75;;;26.20;99.90;;;;;;5008685;28;20211;-69
2022/08/18 07:18:12;;;;;;;9.48;7.55;;;26.20;99.90;;;;;;5013136;28;20204;-69
2022/08/18 07:20:44;;;;;;;8.27;7.50;;;26.30;99.90;;;;;;5012754;28;20223;-68
2022/08/18 07:23:23;;;;;;;10.77;8.10;;;26.50;99.90;;;;;;5006855;28;20317;-66
2022/08/18 07:26:08;;;;;;;11.98;8.25;;;26.50;99.90;;;;;;5007939;28;20195;-66
2022/08/18 07:28:38;;;;;;;12.45;8.10;;;26.60;99.90;;;;;;4998577;28;20211;-67
2022/08/18 07:31:18;;;;;;;9.02;8.13;;;26.60;99.90;;;;;;5010980;28;20297;-68
2022/08/18 07:33:50;;;;;;;8.32;7.47;;;26.70;99.90;;;;;;5010603;28;20210;-67
2022/08/18 07:36:20;;;;;;;8.57;6.65;;;26.90;99.90;;;;;;4995016;28;20200;-67
2022/08/18 07:38:52;;;;;;;7.68;6.93;;;26.90;99.90;;;;;;5006380;28;20215;-67
2022/08/18 07:41:25;;;;;;;7.32;6.15;;;27.00;99.90;;;;;;4997732;28;20226;-67
2022/08/18 07:44:03;;;;;;;6.90;5.55;;;27.10;99.90;;;;;;5009776;28;20708;-68
2022/08/18 07:46:36;;;;;;;13.85;6.43;;;27.10;99.90;;;;;;5006770;28;20555;-66
2022/08/18 07:49:05;;;;;;;8.20;6.43;;;27.10;99.90;;;;;;5004209;28;20211;-68
2022/08/18 07:51:43;;;;;;;7.70;6.43;;;27.10;99.90;;;;;;4995232;28;20227;-68
2022/08/18 07:54:17;;;;;;;7.50;6.60;;;27.20;99.90;;;;;;4995899;28;20222;-68
2022/08/18 07:56:52;;;;;;;8.25;5.95;;;27.20;99.90;;;;;;4993803;28;20603;-67
2022/08/18 07:59:26;;;;;;;8.20;6.15;;;27.30;99.90;;;;;;4992642;28;20199;-67
2022/08/18 08:01:59;;;;;;;9.50;6.13;;;27.40;99.90;;;;;;4997099;28;20194;-66
2022/08/18 08:04:38;;;;;;;17.40;9.02;;;27.60;99.90;;;;;;5001285;28;20212;-67
2022/08/18 08:07:09;;;;;;;19.02;9.93;;;27.70;99.90;;;;;;5000867;28;20210;-66
2022/08/18 08:09:45;;;;;;;13.10;8.20;;;27.80;99.90;;;;;;4991746;28;20203;-65
2022/08/18 08:12:23;;;;;;;7.38;6.57;;;28.00;99.90;;;;;;4992127;28;20305;-66
2022/08/18 08:14:57;;;;;;;9.52;6.78;;;28.10;99.90;;;;;;4991493;28;20204;-66
2022/08/18 08:17:31;;;;;;;11.23;6.85;;;28.20;99.90;;;;;;5010603;28;20605;-69
2022/08/18 08:20:18;;;;;;;9.02;6.45;;;28.20;99.90;;;;;;4991539;28;20257;-73
2022/08/18 08:23:00;;;;;;;8.63;6.13;;;28.30;99.90;;;;;;4997254;28;20227;-66
2022/08/18 08:25:55;;;;;;;7.13;6.00;;;28.30;99.90;;;;;;4995679;28;20218;-69
2022/08/18 08:28:34;;;;;;;7.65;6.47;;;28.40;99.90;;;;;;5004125;28;20223;-67
2022/08/18 08:31:08;;;;;;;9.77;7.03;;;28.60;99.90;;;;;;5004888;28;20548;-68
2022/08/18 08:33:41;;;;;;;11.15;6.45;;;28.70;99.90;;;;;;5011180;28;20211;-67
2022/08/18 08:36:13;;;;;;;8.77;7.13;;;28.80;99.90;;;;;;5011425;28;20207;-66
2022/08/18 08:38:45;;;;;;;10.98;7.85;;;28.90;99.90;;;;;;4998976;28;20226;-67
2022/08/18 08:41:18;;;;;;;10.18;7.03;;;29.10;99.90;;;;;;4997064;28;20250;-68
2022/08/18 08:43:51;;;;;;;9.27;7.05;;;29.20;99.90;;;;;;5002859;28;20702;-66
2022/08/18 08:46:21;;;;;;;7.15;6.22;;;29.40;99.90;;;;;;4995354;28;20218;-67
2022/08/18 08:48:56;;;;;;;10.90;6.95;;;29.50;99.90;;;;;;5003432;28;20207;-68
2022/08/18 08:51:38;;;;;;;9.52;7.10;;;29.70;99.90;;;;;;5005489;28;20278;-67
2022/08/18 08:54:11;;;;;;;9.43;6.07;;;29.90;99.90;;;;;;5008075;28;20226;-67
2022/08/18 08:56:44;;;;;;;12.48;8.48;;;30.00;99.90;;;;;;4992302;28;20739;-70
2022/08/18 08:59:14;;;;;;;11.63;8.32;;;30.20;99.90;;;;;;4995681;28;20206;-66
2022/08/18 09:01:47;;;;;;;11.93;8.50;;;30.20;99.60;;;;;;5007942;28;20210;-66
2022/08/18 09:04:28;;;;;;;8.98;6.68;;;30.20;99.30;;;;;;4990130;28;20506;-66
2022/08/18 09:07:08;;;;;;;9.25;6.85;;;30.20;98.90;;;;;;4998587;28;20203;-67
2022/08/18 09:09:57;;;;;;;10.38;6.80;;;30.40;98.00;;;;;;5001512;28;20566;-67
2022/08/18 09:12:43;;;;;;;15.05;10.27;;;30.60;97.20;;;;;;5005014;28;20220;-64
2022/08/18 09:15:25;;;;;;;9.00;7.22;;;30.70;96.60;;;;;;5004183;28;20195;-69
2022/08/18 09:18:22;;;;;;;8.23;6.70;;;30.90;96.70;;;;;;5006538;28;20207;-69
2022/08/18 09:20:57;;;;;;;9.50;8.23;;;31.10;95.70;;;;;;5004842;28;20211;-68
2022/08/18 09:23:28;;;;;;;11.20;7.82;;;31.20;95.00;;;;;;5002951;28;20276;-65
2022/08/18 09:25:59;;;;;;;10.70;8.20;;;31.20;94.80;;;;;;5002601;28;20614;-68
2022/08/18 09:28:55;;;;;;;11.23;6.95;;;31.20;94.80;;;;;;4996821;28;20208;-68
2022/08/18 09:31:26;;;;;;;9.00;6.88;;;31.40;94.90;;;;;;4998253;28;20582;-66
2022/08/18 09:34:08;;;;;;;8.32;6.45;;;31.50;94.10;;;;;;5005740;28;20203;-66
2022/08/18 09:36:47;;;;;;;10.30;7.22;;;31.70;93.90;;;;;;5006707;28;20195;-67
2022/08/18 09:42:14;;;;;;;9.57;6.82;;;32.10;92.10;;;;;;5005558;28;20304;-67
2022/08/18 09:45:04;;;;;;;9.35;6.63;;;32.10;91.50;;;;;;5002994;28;20234;-67
2022/08/18 09:47:58;;;;;;;10.02;6.78;;;32.20;91.20;;;;;;5002940;28;20748;-68
2022/08/18 09:50:37;;;;;;;6.80;6.20;;;32.30;91.20;;;;;;5002638;28;20230;-66
2022/08/18 09:53:31;;;;;;;10.45;7.50;;;32.60;90.60;;;;;;5001986;28;20753;-66
2022/08/18 09:55:58;;;;;;;8.98;7.57;;;32.70;89.40;;;;;;5002738;28;20244;-65
2022/08/18 09:58:52;;;;;;;8.60;6.70;;;32.70;88.20;;;;;;5005804;28;20845;-67
2022/08/18 10:01:36;;;;;;;8.50;6.00;;;32.70;87.90;;;;;;5010335;28;20239;-69
2022/08/18 10:04:29;;;;;;;7.82;5.95;;;32.70;86.90;;;;;;4998974;28;20235;-67
2022/08/18 10:07:15;;;;;;;7.28;5.70;;;32.90;85.50;;;;;;5008997;28;20223;-68
2022/08/18 10:09:52;;;;;;;8.50;6.53;;;32.80;83.90;;;;;;5009462;28;20207;-69
2022/08/18 10:12:35;;;;;;;6.88;5.45;;;32.70;83.40;;;;;;5009245;28;20249;-70
2022/08/18 10:15:24;;;;;;;7.63;6.00;;;32.70;84.10;;;;;;5006402;28;20214;-69
2022/08/18 10:18:11;;;;;;;8.82;6.53;;;32.80;83.40;;;;;;4999598;28;20302;-69
2022/08/18 10:20:59;;;;;;;9.40;5.75;;;32.70;83.30;;;;;;5002180;28;21955;-68
2022/08/18 10:23:59;;;;;;;8.35;6.90;;;32.80;82.90;;;;;;5005616;28;20651;-68
2022/08/18 10:27:08;;;;;;;7.47;5.78;;;32.90;82.70;;;;;;5003408;28;20217;-68
2022/08/18 10:29:53;;;;;;;7.25;6.28;;;33.10;82.60;;;;;;5001738;28;20210;-69
2022/08/18 10:32:45;;;;;;;10.00;7.13;;;33.20;82.50;;;;;;5007893;28;20213;-69
2022/08/18 10:35:53;;;;;;;12.05;6.50;;;33.40;81.70;;;;;;5001505;28;20199;-68
2022/08/18 10:38:47;;;;;;;5.25;4.75;;;33.50;80.50;;;;;;4998971;28;20204;-69
2022/08/18 10:41:22;;;;;;;5.93;5.32;;;33.80;78.60;;;;;;5005766;28;20226;-68
2022/08/18 10:43:52;;;;;;;10.48;4.72;;;34.00;76.50;;;;;;4998007;28;20217;-69
2022/08/18 10:46:22;;;;;;;10.07;5.60;;;34.10;75.10;;;;;;5010213;28;20214;-68
2022/08/18 10:49:02;;;;;;;6.35;5.00;;;34.30;75.10;;;;;;5009269;28;20212;-69
2022/08/18 10:51:48;;;;;;;6.78;4.85;;;34.40;74.40;;;;;;5003403;28;20250;-72
2022/08/18 10:54:22;;;;;;;7.10;4.63;;;34.40;73.50;;;;;;5008701;28;20564;-68
2022/08/18 10:56:54;;;;;;;5.72;5.13;;;34.40;73.50;;;;;;5008564;28;20239;-68
2022/08/18 10:59:30;;;;;;;5.82;5.13;;;34.30;73.30;;;;;;5005950;28;20688;-69
2022/08/18 11:02:09;;;;;;;4.90;4.40;;;34.30;72.40;;;;;;5004447;28;20311;-68
2022/08/18 11:04:42;;;;;;;5.18;4.65;;;34.40;70.10;;;;;;5010017;28;20202;-68
2022/08/18 11:07:13;;;;;;;5.75;5.22;;;34.60;69.10;;;;;;5005993;28;20211;-68
2022/08/18 11:09:43;;;;;;;6.88;5.20;;;34.70;69.90;;;;;;4998618;28;20689;-68
2022/08/18 11:12:13;;;;;;;4.88;3.67;;;34.80;68.50;;;;;;4997557;28;20270;-68
2022/08/18 11:15:06;;;;;;;7.82;3.92;;;34.80;66.30;;;;;;5000064;28;20230;-69
2022/08/18 11:17:47;;;;;;;5.10;4.38;;;34.90;66.10;;;;;;5001304;28;20207;-72
2022/08/18 11:20:17;;;;;;;4.68;4.25;;;34.90;65.10;;;;;;5008203;28;20668;-69
2022/08/18 11:22:52;;;;;;;5.10;4.55;;;35.20;65.30;;;;;;5010015;28;20226;-69
2022/08/18 11:25:25;;;;;;;4.75;4.18;;;35.20;64.80;;;;;;5008382;28;20209;-70
2022/08/18 11:27:53;;;;;;;7.95;4.75;;;35.20;63.80;;;;;;5006293;28;20564;-68
2022/08/18 11:30:21;;;;;;;7.32;4.35;;;35.20;63.70;;;;;;5002818;28;20226;-67
2022/08/18 11:32:50;;;;;;;6.63;4.53;;;35.10;64.10;;;;;;5002456;28;20715;-69
2022/08/18 11:35:20;;;;;;;4.88;4.47;;;35.00;64.50;;;;;;4993748;28;20341;-66
2022/08/18 11:37:50;;;;;;;5.13;4.22;;;34.90;64.10;;;;;;4996508;28;20228;-65
2022/08/18 11:40:35;;;;;;;5.82;5.13;;;34.80;64.30;;;;;;4991324;28;20216;-67
2022/08/18 11:43:05;;;;;;;8.38;4.57;;;34.90;64.40;;;;;;5005949;28;20203;-66
2022/08/18 11:45:35;;;;;;;6.35;5.20;;;34.90;64.20;;;;;;5009848;28;20234;-68
2022/08/18 11:48:16;;;;;;;5.40;4.80;;;34.70;64.60;;;;;;5001199;28;20218;-66
2022/08/18 11:50:50;;;;;;;4.75;4.30;;;34.60;65.10;;;;;;5014200;28;20604;-66
2022/08/18 11:53:25;;;;;;;5.70;4.32;;;34.60;64.70;;;;;;4998102;28;20212;-67
2022/08/18 11:56:16;;;;;;;5.05;4.03;;;34.40;64.20;;;;;;4995024;28;20203;-67
2022/08/18 11:58:45;;;;;;;4.60;4.20;;;34.50;63.70;;;;;;4996455;28;20249;-67
2022/08/18 12:01:27;;;;;;;5.25;4.75;;;34.50;63.20;;;;;;4998869;28;20218;-67
2022/08/18 12:03:56;;;;;;;6.78;4.57;;;34.60;63.20;;;;;;5008306;28;20209;-69
2022/08/18 12:06:26;;;;;;;4.35;3.95;;;34.70;63.40;;;;;;5003825;28;20575;-68
2022/08/18 12:09:01;;;;;;;5.32;4.35;;;34.70;62.60;;;;;;5006058;28;20302;-67
2022/08/18 12:11:31;;;;;;;7.22;4.53;;;34.90;62.50;;;;;;5006261;28;20217;-68
2022/08/18 12:14:05;;;;;;;4.78;4.38;;;35.00;62.10;;;;;;5003272;28;20218;-68
2022/08/18 12:16:35;;;;;;;5.93;4.40;;;35.10;61.80;;;;;;5010179;28;20199;-67
2022/08/18 12:19:02;;;;;;;5.32;4.43;;;35.00;62.00;;;;;;5003960;28;20214;-68
2022/08/18 12:21:29;;;;;;;6.20;4.63;;;34.90;61.90;;;;;;4996491;28;20235;-67
2022/08/18 12:23:56;;;;;;;5.55;4.57;;;34.90;61.00;;;;;;5005964;28;20204;-69
2022/08/18 12:26:23;;;;;;;5.30;4.78;;;34.80;61.20;;;;;;5007023;28;20668;-67
2022/08/18 12:28:51;;;;;;;6.75;4.57;;;34.80;62.60;;;;;;5006973;28;20632;-67
2022/08/18 12:31:18;;;;;;;5.43;4.93;;;34.80;62.10;;;;;;5002487;28;20199;-67
2022/08/18 12:33:44;;;;;;;8.57;5.35;;;34.70;62.90;;;;;;5007448;28;20226;-67
2022/08/18 12:36:12;;;;;;;4.68;4.18;;;34.70;63.60;;;;;;5005600;28;20204;-66
2022/08/18 12:38:40;;;;;;;4.93;3.83;;;34.70;62.50;;;;;;5002342;28;20261;-68
2022/08/18 12:41:10;;;;;;;5.45;4.30;;;34.70;61.40;;;;;;5008282;28;20660;-67
2022/08/18 12:43:38;;;;;;;4.40;4.07;;;34.70;61.10;;;;;;5008387;28;20203;-66
2022/08/18 12:46:07;;;;;;;5.07;4.57;;;34.80;61.10;;;;;;5002887;28;20520;-69
2022/08/18 12:48:34;;;;;;;6.22;4.28;;;34.70;61.10;;;;;;4997709;28;20271;-67
2022/08/18 12:51:00;;;;;;;7.82;5.18;;;34.70;61.20;;;;;;5005830;28;20207;-67
2022/08/18 12:53:28;;;;;;;5.07;4.25;;;34.80;61.50;;;;;;5008435;28;20233;-66
2022/08/18 12:55:55;;;;;;;4.82;4.18;;;34.80;61.70;;;;;;5004484;28;20664;-68
2022/08/18 12:58:22;;;;;;;4.90;4.40;;;34.70;61.90;;;;;;5011735;28;20235;-67
2022/08/18 13:00:49;;;;;;;5.00;4.50;;;34.60;61.80;;;;;;5008829;28;20219;-68
2022/08/18 13:03:18;;;;;;;8.20;5.05;;;34.60;61.70;;;;;;5009508;28;20241;-68
2022/08/18 13:05:45;;;;;;;5.30;4.35;;;34.50;61.70;;;;;;4998842;28;20212;-69
2022/08/18 13:08:17;;;;;;;5.63;4.53;;;34.40;61.60;;;;;;5012932;28;20242;-66
2022/08/18 13:10:44;;;;;;;7.30;5.30;;;34.40;62.00;;;;;;4998701;28;20222;-68
2022/08/18 13:13:11;;;;;;;5.97;5.07;;;34.10;62.60;;;;;;5004750;28;20282;-69
2022/08/18 13:15:38;;;;;;;7.07;4.75;;;33.90;63.30;;;;;;5004734;28;20215;-65
2022/08/18 13:18:05;;;;;;;6.47;4.40;;;33.80;63.80;;;;;;5009693;28;20211;-66